sensor_id;sensor_type;location;lat;lon;timestamp;P1;durP1;ratioP1;P2;durP2;ratioP2
36747;SDS011;22716;51.556;5.080;2022-09-03T00:02:31;12.10;;;6.18;;
36747;SDS011;22716;51.556;5.080;2022-09-03T00:05:11;11.97;;;6.03;;
36747;SDS011;22716;51.556;5.080;2022-09-03T00:07:52;13.05;;;7.45;;
36747;SDS011;22716;51.556;5.080;2022-09-03T00:10:33;8.40;;;5.57;;
36747;SDS011;22716;51.556;5.080;2022-09-03T00:13:12;14.32;;;6.68;;
36747;SDS011;22716;51.556;5.080;2022-09-03T00:15:45;14.82;;;7.85;;
36747;SDS011;22716;51.556;5.080;2022-09-03T00:18:16;11.53;;;7.17;;
36747;SDS011;22716;51.556;5.080;2022-09-03T00:20:49;13.68;;;5.30;;
36747;SDS011;22716;51.556;5.080;2022-09-03T00:23:23;10.40;;;5.45;;
36747;SDS011;22716;51.556;5.080;2022-09-03T00:26:00;8.05;;;3.70;;
36747;SDS011;22716;51.556;5.080;2022-09-03T00:28:37;6.82;;;3.28;;
36747;SDS011;22716;51.556;5.080;2022-09-03T00:31:15;8.23;;;3.13;;
36747;SDS011;22716;51.556;5.080;2022-09-03T00:33:51;6.30;;;3.70;;
36747;SDS011;22716;51.556;5.080;2022-09-03T00:36:28;11.33;;;2.90;;
36747;SDS011;22716;51.556;5.080;2022-09-03T00:39:08;8.27;;;2.60;;
36747;SDS011;22716;51.556;5.080;2022-09-03T00:41:43;5.50;;;2.40;;
36747;SDS011;22716;51.556;5.080;2022-09-03T00:44:26;5.28;;;2.67;;
36747;SDS011;22716;51.556;5.080;2022-09-03T00:47:17;9.27;;;3.42;;
36747;SDS011;22716;51.556;5.080;2022-09-03T00:49:56;6.00;;;2.63;;
36747;SDS011;22716;51.556;5.080;2022-09-03T00:52:37;4.10;;;2.65;;
36747;SDS011;22716;51.556;5.080;2022-09-03T00:55:14;7.17;;;2.87;;
36747;SDS011;22716;51.556;5.080;2022-09-03T00:57:56;7.18;;;2.70;;
36747;SDS011;22716;51.556;5.080;2022-09-03T01:00:39;5.35;;;2.22;;
36747;SDS011;22716;51.556;5.080;2022-09-03T01:03:13;5.88;;;2.15;;
36747;SDS011;22716;51.556;5.080;2022-09-03T01:06:09;6.78;;;3.83;;
36747;SDS011;22716;51.556;5.080;2022-09-03T01:08:58;5.07;;;2.37;;
36747;SDS011;22716;51.556;5.080;2022-09-03T01:11:38;8.20;;;2.23;;
36747;SDS011;22716;51.556;5.080;2022-09-03T01:14:30;11.30;;;2.40;;
36747;SDS011;22716;51.556;5.080;2022-09-03T01:17:14;7.03;;;2.20;;
36747;SDS011;22716;51.556;5.080;2022-09-03T01:20:02;8.43;;;2.20;;
36747;SDS011;22716;51.556;5.080;2022-09-03T01:23:02;6.63;;;2.03;;
36747;SDS011;22716;51.556;5.080;2022-09-03T01:25:53;5.25;;;2.30;;
36747;SDS011;22716;51.556;5.080;2022-09-03T01:28:40;9.27;;;2.60;;
36747;SDS011;22716;51.556;5.080;2022-09-03T01:31:24;9.20;;;2.50;;
36747;SDS011;22716;51.556;5.080;2022-09-03T01:34:03;4.00;;;2.13;;
36747;SDS011;22716;51.556;5.080;2022-09-03T01:36:43;7.53;;;2.30;;
36747;SDS011;22716;51.556;5.080;2022-09-03T01:39:25;6.80;;;2.37;;
36747;SDS011;22716;51.556;5.080;2022-09-03T01:42:05;2.90;;;1.97;;
36747;SDS011;22716;51.556;5.080;2022-09-03T01:45:00;6.07;;;2.00;;
36747;SDS011;22716;51.556;5.080;2022-09-03T01:47:45;4.05;;;2.50;;
36747;SDS011;22716;51.556;5.080;2022-09-03T01:50:30;5.25;;;2.38;;
36747;SDS011;22716;51.556;5.080;2022-09-03T01:53:12;9.60;;;2.03;;
36747;SDS011;22716;51.556;5.080;2022-09-03T01:55:57;7.80;;;2.47;;
36747;SDS011;22716;51.556;5.080;2022-09-03T01:58:39;4.37;;;2.00;;
36747;SDS011;22716;51.556;5.080;2022-09-03T02:01:17;14.00;;;2.40;;
36747;SDS011;22716;51.556;5.080;2022-09-03T02:03:52;5.63;;;2.47;;
36747;SDS011;22716;51.556;5.080;2022-09-03T02:06:24;2.93;;;2.23;;
36747;SDS011;22716;51.556;5.080;2022-09-03T02:08:58;8.43;;;2.60;;
36747;SDS011;22716;51.556;5.080;2022-09-03T02:11:27;4.53;;;2.90;;
36747;SDS011;22716;51.556;5.080;2022-09-03T02:13:56;4.73;;;2.53;;
36747;SDS011;22716;51.556;5.080;2022-09-03T02:16:30;11.50;;;2.43;;
36747;SDS011;22716;51.556;5.080;2022-09-03T02:19:03;4.97;;;2.87;;
36747;SDS011;22716;51.556;5.080;2022-09-03T02:21:36;5.20;;;2.57;;
36747;SDS011;22716;51.556;5.080;2022-09-03T02:24:07;5.40;;;2.67;;
36747;SDS011;22716;51.556;5.080;2022-09-03T02:26:36;7.70;;;2.83;;
36747;SDS011;22716;51.556;5.080;2022-09-03T02:29:05;5.87;;;2.97;;
36747;SDS011;22716;51.556;5.080;2022-09-03T02:31:37;4.63;;;2.70;;
36747;SDS011;22716;51.556;5.080;2022-09-03T02:34:06;7.63;;;3.97;;
36747;SDS011;22716;51.556;5.080;2022-09-03T02:36:36;5.60;;;2.87;;
36747;SDS011;22716;51.556;5.080;2022-09-03T02:39:10;5.90;;;2.60;;
36747;SDS011;22716;51.556;5.080;2022-09-03T02:41:41;6.97;;;3.00;;
36747;SDS011;22716;51.556;5.080;2022-09-03T02:44:11;4.83;;;3.13;;
36747;SDS011;22716;51.556;5.080;2022-09-03T02:46:52;7.50;;;2.97;;
36747;SDS011;22716;51.556;5.080;2022-09-03T02:49:25;8.93;;;3.10;;
36747;SDS011;22716;51.556;5.080;2022-09-03T02:51:57;6.60;;;2.93;;
36747;SDS011;22716;51.556;5.080;2022-09-03T02:54:30;6.33;;;3.60;;
36747;SDS011;22716;51.556;5.080;2022-09-03T02:57:19;5.47;;;2.93;;
36747;SDS011;22716;51.556;5.080;2022-09-03T02:59:49;10.10;;;3.43;;
36747;SDS011;22716;51.556;5.080;2022-09-03T03:02:20;3.53;;;3.03;;
36747;SDS011;22716;51.556;5.080;2022-09-03T03:04:49;10.80;;;3.77;;
36747;SDS011;22716;51.556;5.080;2022-09-03T03:07:18;3.93;;;2.97;;
36747;SDS011;22716;51.556;5.080;2022-09-03T03:09:47;6.93;;;2.97;;
36747;SDS011;22716;51.556;5.080;2022-09-03T03:12:16;3.77;;;2.83;;
36747;SDS011;22716;51.556;5.080;2022-09-03T03:14:45;7.07;;;3.67;;
36747;SDS011;22716;51.556;5.080;2022-09-03T03:17:14;8.60;;;2.77;;
36747;SDS011;22716;51.556;5.080;2022-09-03T03:19:46;7.87;;;3.67;;
36747;SDS011;22716;51.556;5.080;2022-09-03T03:22:14;11.57;;;3.50;;
36747;SDS011;22716;51.556;5.080;2022-09-03T03:24:43;4.80;;;2.93;;
36747;SDS011;22716;51.556;5.080;2022-09-03T03:27:14;6.30;;;3.67;;
36747;SDS011;22716;51.556;5.080;2022-09-03T03:29:43;9.87;;;3.93;;
36747;SDS011;22716;51.556;5.080;2022-09-03T03:32:12;9.13;;;3.83;;
36747;SDS011;22716;51.556;5.080;2022-09-03T03:34:41;5.83;;;3.60;;
36747;SDS011;22716;51.556;5.080;2022-09-03T03:37:12;9.53;;;4.10;;
36747;SDS011;22716;51.556;5.080;2022-09-03T03:39:41;7.60;;;4.67;;
36747;SDS011;22716;51.556;5.080;2022-09-03T03:42:10;7.80;;;4.23;;
36747;SDS011;22716;51.556;5.080;2022-09-03T03:44:39;11.33;;;4.50;;
36747;SDS011;22716;51.556;5.080;2022-09-03T03:47:08;12.40;;;4.80;;
36747;SDS011;22716;51.556;5.080;2022-09-03T03:49:37;10.73;;;4.27;;
36747;SDS011;22716;51.556;5.080;2022-09-03T03:52:06;10.43;;;5.13;;
36747;SDS011;22716;51.556;5.080;2022-09-03T03:54:38;10.93;;;4.70;;
36747;SDS011;22716;51.556;5.080;2022-09-03T03:57:08;9.10;;;4.27;;
36747;SDS011;22716;51.556;5.080;2022-09-03T03:59:37;7.50;;;3.63;;
36747;SDS011;22716;51.556;5.080;2022-09-03T04:02:06;7.73;;;3.80;;
36747;SDS011;22716;51.556;5.080;2022-09-03T04:04:35;12.43;;;6.20;;
36747;SDS011;22716;51.556;5.080;2022-09-03T04:07:04;17.83;;;10.43;;
36747;SDS011;22716;51.556;5.080;2022-09-03T04:09:33;15.10;;;9.53;;
36747;SDS011;22716;51.556;5.080;2022-09-03T04:12:05;11.97;;;4.40;;
36747;SDS011;22716;51.556;5.080;2022-09-03T04:14:35;10.20;;;4.13;;
36747;SDS011;22716;51.556;5.080;2022-09-03T04:17:04;7.27;;;3.90;;
36747;SDS011;22716;51.556;5.080;2022-09-03T04:19:33;10.27;;;5.00;;
36747;SDS011;22716;51.556;5.080;2022-09-03T04:22:02;8.40;;;4.10;;
36747;SDS011;22716;51.556;5.080;2022-09-03T04:24:31;8.53;;;4.50;;
36747;SDS011;22716;51.556;5.080;2022-09-03T04:27:06;11.87;;;4.70;;
36747;SDS011;22716;51.556;5.080;2022-09-03T04:29:34;8.87;;;4.33;;
36747;SDS011;22716;51.556;5.080;2022-09-03T04:32:03;10.73;;;5.03;;
36747;SDS011;22716;51.556;5.080;2022-09-03T04:34:45;7.83;;;4.20;;
36747;SDS011;22716;51.556;5.080;2022-09-03T04:37:14;16.73;;;4.30;;
36747;SDS011;22716;51.556;5.080;2022-09-03T04:39:45;8.63;;;4.03;;
36747;SDS011;22716;51.556;5.080;2022-09-03T04:42:17;9.47;;;4.10;;
36747;SDS011;22716;51.556;5.080;2022-09-03T04:44:46;7.13;;;3.67;;
36747;SDS011;22716;51.556;5.080;2022-09-03T04:47:14;8.73;;;3.67;;
36747;SDS011;22716;51.556;5.080;2022-09-03T04:49:44;10.03;;;4.10;;
36747;SDS011;22716;51.556;5.080;2022-09-03T04:52:12;4.63;;;3.20;;
36747;SDS011;22716;51.556;5.080;2022-09-03T04:54:41;9.13;;;4.17;;
36747;SDS011;22716;51.556;5.080;2022-09-03T04:57:10;11.77;;;4.03;;
36747;SDS011;22716;51.556;5.080;2022-09-03T04:59:42;9.93;;;4.03;;
36747;SDS011;22716;51.556;5.080;2022-09-03T05:02:11;9.63;;;3.90;;
36747;SDS011;22716;51.556;5.080;2022-09-03T05:04:40;6.50;;;3.50;;
36747;SDS011;22716;51.556;5.080;2022-09-03T05:07:11;8.87;;;3.60;;
36747;SDS011;22716;51.556;5.080;2022-09-03T05:09:40;6.83;;;3.83;;
36747;SDS011;22716;51.556;5.080;2022-09-03T05:12:09;11.50;;;4.70;;
36747;SDS011;22716;51.556;5.080;2022-09-03T05:14:38;4.80;;;3.53;;
36747;SDS011;22716;51.556;5.080;2022-09-03T05:17:10;10.83;;;4.03;;
36747;SDS011;22716;51.556;5.080;2022-09-03T05:19:39;10.10;;;4.23;;
36747;SDS011;22716;51.556;5.080;2022-09-03T05:22:07;11.63;;;4.10;;
36747;SDS011;22716;51.556;5.080;2022-09-03T05:24:36;10.43;;;5.00;;
36747;SDS011;22716;51.556;5.080;2022-09-03T05:27:05;11.10;;;4.57;;
36747;SDS011;22716;51.556;5.080;2022-09-03T05:29:34;7.77;;;3.80;;
36747;SDS011;22716;51.556;5.080;2022-09-03T05:32:03;11.40;;;4.63;;
36747;SDS011;22716;51.556;5.080;2022-09-03T05:34:35;9.73;;;4.67;;
36747;SDS011;22716;51.556;5.080;2022-09-03T05:37:04;9.97;;;4.00;;
36747;SDS011;22716;51.556;5.080;2022-09-03T05:39:32;7.10;;;3.93;;
36747;SDS011;22716;51.556;5.080;2022-09-03T05:42:02;6.57;;;3.63;;
36747;SDS011;22716;51.556;5.080;2022-09-03T05:44:31;14.83;;;4.40;;
36747;SDS011;22716;51.556;5.080;2022-09-03T05:47:00;8.70;;;3.70;;
36747;SDS011;22716;51.556;5.080;2022-09-03T05:49:29;9.90;;;4.03;;
36747;SDS011;22716;51.556;5.080;2022-09-03T05:52:01;10.10;;;3.77;;
36747;SDS011;22716;51.556;5.080;2022-09-03T05:54:30;9.67;;;5.27;;
36747;SDS011;22716;51.556;5.080;2022-09-03T05:56:59;10.90;;;4.63;;
36747;SDS011;22716;51.556;5.080;2022-09-03T05:59:27;7.13;;;4.47;;
36747;SDS011;22716;51.556;5.080;2022-09-03T06:01:58;7.77;;;4.23;;
36747;SDS011;22716;51.556;5.080;2022-09-03T06:04:27;8.43;;;4.10;;
36747;SDS011;22716;51.556;5.080;2022-09-03T06:06:57;10.13;;;4.43;;
36747;SDS011;22716;51.556;5.080;2022-09-03T06:09:28;10.80;;;4.77;;
36747;SDS011;22716;51.556;5.080;2022-09-03T06:11:57;10.93;;;4.63;;
36747;SDS011;22716;51.556;5.080;2022-09-03T06:14:26;25.03;;;5.10;;
36747;SDS011;22716;51.556;5.080;2022-09-03T06:16:55;9.83;;;4.73;;
36747;SDS011;22716;51.556;5.080;2022-09-03T06:19:23;8.50;;;4.50;;
36747;SDS011;22716;51.556;5.080;2022-09-03T06:21:56;11.67;;;5.07;;
36747;SDS011;22716;51.556;5.080;2022-09-03T06:24:28;12.87;;;4.27;;
36747;SDS011;22716;51.556;5.080;2022-09-03T06:26:57;10.30;;;5.17;;
36747;SDS011;22716;51.556;5.080;2022-09-03T06:29:26;11.93;;;4.83;;
36747;SDS011;22716;51.556;5.080;2022-09-03T06:31:55;9.73;;;4.67;;
36747;SDS011;22716;51.556;5.080;2022-09-03T06:34:26;8.57;;;5.13;;
36747;SDS011;22716;51.556;5.080;2022-09-03T06:36:59;10.07;;;4.90;;
36747;SDS011;22716;51.556;5.080;2022-09-03T06:39:31;11.20;;;5.20;;
36747;SDS011;22716;51.556;5.080;2022-09-03T06:42:00;14.07;;;5.37;;
36747;SDS011;22716;51.556;5.080;2022-09-03T06:44:30;7.57;;;4.77;;
36747;SDS011;22716;51.556;5.080;2022-09-03T06:46:59;8.53;;;4.70;;
36747;SDS011;22716;51.556;5.080;2022-09-03T06:49:28;11.60;;;4.87;;
36747;SDS011;22716;51.556;5.080;2022-09-03T06:51:57;13.17;;;5.27;;
36747;SDS011;22716;51.556;5.080;2022-09-03T06:54:27;12.23;;;4.53;;
36747;SDS011;22716;51.556;5.080;2022-09-03T06:56:58;8.13;;;4.73;;
36747;SDS011;22716;51.556;5.080;2022-09-03T06:59:27;12.60;;;4.90;;
36747;SDS011;22716;51.556;5.080;2022-09-03T07:01:57;10.80;;;5.13;;
36747;SDS011;22716;51.556;5.080;2022-09-03T07:04:28;10.30;;;4.53;;
36747;SDS011;22716;51.556;5.080;2022-09-03T07:06:59;9.70;;;4.57;;
36747;SDS011;22716;51.556;5.080;2022-09-03T07:09:27;12.67;;;5.40;;
36747;SDS011;22716;51.556;5.080;2022-09-03T07:12:03;11.60;;;4.97;;
36747;SDS011;22716;51.556;5.080;2022-09-03T07:14:35;11.80;;;5.23;;
36747;SDS011;22716;51.556;5.080;2022-09-03T07:17:04;10.03;;;4.67;;
36747;SDS011;22716;51.556;5.080;2022-09-03T07:19:32;19.45;;;4.68;;
36747;SDS011;22716;51.556;5.080;2022-09-03T07:22:02;14.67;;;5.00;;
36747;SDS011;22716;51.556;5.080;2022-09-03T07:24:33;11.83;;;5.17;;
36747;SDS011;22716;51.556;5.080;2022-09-03T07:27:06;8.80;;;5.03;;
36747;SDS011;22716;51.556;5.080;2022-09-03T07:29:34;8.70;;;5.07;;
36747;SDS011;22716;51.556;5.080;2022-09-03T07:32:03;6.57;;;4.60;;
36747;SDS011;22716;51.556;5.080;2022-09-03T07:34:33;10.87;;;5.10;;
36747;SDS011;22716;51.556;5.080;2022-09-03T07:37:02;15.60;;;4.77;;
36747;SDS011;22716;51.556;5.080;2022-09-03T07:39:32;9.50;;;4.70;;
36747;SDS011;22716;51.556;5.080;2022-09-03T07:42:01;10.33;;;4.80;;
36747;SDS011;22716;51.556;5.080;2022-09-03T07:44:53;10.52;;;5.20;;
36747;SDS011;22716;51.556;5.080;2022-09-03T07:47:22;12.53;;;4.80;;
36747;SDS011;22716;51.556;5.080;2022-09-03T07:49:55;7.03;;;4.07;;
36747;SDS011;22716;51.556;5.080;2022-09-03T07:52:25;7.87;;;4.30;;
36747;SDS011;22716;51.556;5.080;2022-09-03T07:54:54;12.05;;;3.35;;
36747;SDS011;22716;51.556;5.080;2022-09-03T07:57:23;7.70;;;2.95;;
36747;SDS011;22716;51.556;5.080;2022-09-03T07:59:55;7.30;;;3.97;;
36747;SDS011;22716;51.556;5.080;2022-09-03T08:02:24;11.07;;;3.83;;
36747;SDS011;22716;51.556;5.080;2022-09-03T08:04:53;11.00;;;3.73;;
36747;SDS011;22716;51.556;5.080;2022-09-03T08:07:21;14.60;;;3.83;;
36747;SDS011;22716;51.556;5.080;2022-09-03T08:09:51;9.67;;;2.23;;
36747;SDS011;22716;51.556;5.080;2022-09-03T08:12:20;12.55;;;2.70;;
36747;SDS011;22716;51.556;5.080;2022-09-03T08:14:49;7.30;;;2.40;;
36747;SDS011;22716;51.556;5.080;2022-09-03T08:17:21;7.20;;;2.63;;
36747;SDS011;22716;51.556;5.080;2022-09-03T08:19:49;7.03;;;2.60;;
36747;SDS011;22716;51.556;5.080;2022-09-03T08:22:19;6.78;;;2.90;;
36747;SDS011;22716;51.556;5.080;2022-09-03T08:24:50;4.40;;;2.50;;
36747;SDS011;22716;51.556;5.080;2022-09-03T08:27:20;13.50;;;2.63;;
36747;SDS011;22716;51.556;5.080;2022-09-03T08:29:51;4.35;;;2.15;;
36747;SDS011;22716;51.556;5.080;2022-09-03T08:32:23;10.82;;;1.75;;
36747;SDS011;22716;51.556;5.080;2022-09-03T08:34:51;8.35;;;4.38;;
36747;SDS011;22716;51.556;5.080;2022-09-03T08:37:20;7.63;;;2.05;;
36747;SDS011;22716;51.556;5.080;2022-09-03T08:39:56;5.78;;;2.40;;
36747;SDS011;22716;51.556;5.080;2022-09-03T08:42:27;9.00;;;3.72;;
36747;SDS011;22716;51.556;5.080;2022-09-03T08:45:09;5.88;;;2.17;;
36747;SDS011;22716;51.556;5.080;2022-09-03T08:47:48;5.57;;;2.53;;
36747;SDS011;22716;51.556;5.080;2022-09-03T08:50:22;5.60;;;2.28;;
36747;SDS011;22716;51.556;5.080;2022-09-03T08:52:55;5.28;;;1.95;;
36747;SDS011;22716;51.556;5.080;2022-09-03T08:55:30;3.92;;;1.38;;
36747;SDS011;22716;51.556;5.080;2022-09-03T08:58:24;4.40;;;1.50;;
36747;SDS011;22716;51.556;5.080;2022-09-03T09:00:58;1.75;;;1.05;;
36747;SDS011;22716;51.556;5.080;2022-09-03T09:03:41;4.93;;;1.45;;
36747;SDS011;22716;51.556;5.080;2022-09-03T09:06:18;5.38;;;1.63;;
36747;SDS011;22716;51.556;5.080;2022-09-03T09:08:57;4.30;;;1.45;;
36747;SDS011;22716;51.556;5.080;2022-09-03T09:11:33;4.00;;;1.88;;
36747;SDS011;22716;51.556;5.080;2022-09-03T09:14:19;5.50;;;2.45;;
36747;SDS011;22716;51.556;5.080;2022-09-03T09:16:57;4.70;;;2.03;;
36747;SDS011;22716;51.556;5.080;2022-09-03T09:19:38;5.80;;;1.95;;
36747;SDS011;22716;51.556;5.080;2022-09-03T09:22:19;4.50;;;1.70;;
36747;SDS011;22716;51.556;5.080;2022-09-03T09:24:54;6.55;;;2.95;;
36747;SDS011;22716;51.556;5.080;2022-09-03T09:27:26;4.05;;;1.75;;
36747;SDS011;22716;51.556;5.080;2022-09-03T09:29:56;5.82;;;1.95;;
36747;SDS011;22716;51.556;5.080;2022-09-03T09:32:28;11.82;;;1.80;;
36747;SDS011;22716;51.556;5.080;2022-09-03T09:35:02;3.30;;;1.65;;
36747;SDS011;22716;51.556;5.080;2022-09-03T09:37:45;4.03;;;1.98;;
36747;SDS011;22716;51.556;5.080;2022-09-03T09:40:26;5.40;;;1.74;;
36747;SDS011;22716;51.556;5.080;2022-09-03T09:43:02;3.38;;;1.50;;
36747;SDS011;22716;51.556;5.080;2022-09-03T09:45:37;5.78;;;2.17;;
36747;SDS011;22716;51.556;5.080;2022-09-03T09:48:12;6.70;;;1.80;;
36747;SDS011;22716;51.556;5.080;2022-09-03T09:50:48;3.95;;;1.60;;
36747;SDS011;22716;51.556;5.080;2022-09-03T09:53:17;5.03;;;2.33;;
36747;SDS011;22716;51.556;5.080;2022-09-03T09:55:48;5.10;;;2.33;;
36747;SDS011;22716;51.556;5.080;2022-09-03T09:58:22;7.53;;;2.47;;
36747;SDS011;22716;51.556;5.080;2022-09-03T10:01:03;6.82;;;3.22;;
36747;SDS011;22716;51.556;5.080;2022-09-03T10:03:40;6.47;;;1.80;;
36747;SDS011;22716;51.556;5.080;2022-09-03T10:06:24;6.57;;;2.30;;
36747;SDS011;22716;51.556;5.080;2022-09-03T10:09:09;8.35;;;1.98;;
36747;SDS011;22716;51.556;5.080;2022-09-03T10:11:41;9.75;;;1.48;;
36747;SDS011;22716;51.556;5.080;2022-09-03T10:14:17;3.33;;;1.75;;
36747;SDS011;22716;51.556;5.080;2022-09-03T10:16:53;4.32;;;2.00;;
36747;SDS011;22716;51.556;5.080;2022-09-03T10:19:29;14.30;;;3.20;;
36747;SDS011;22716;51.556;5.080;2022-09-03T10:22:08;6.63;;;2.10;;
36747;SDS011;22716;51.556;5.080;2022-09-03T10:24:46;7.57;;;2.33;;
36747;SDS011;22716;51.556;5.080;2022-09-03T10:27:23;7.03;;;1.80;;
36747;SDS011;22716;51.556;5.080;2022-09-03T10:29:54;18.83;;;2.17;;
36747;SDS011;22716;51.556;5.080;2022-09-03T10:32:27;3.78;;;1.52;;
36747;SDS011;22716;51.556;5.080;2022-09-03T10:35:09;5.03;;;1.42;;
36747;SDS011;22716;51.556;5.080;2022-09-03T10:37:52;4.45;;;1.17;;
36747;SDS011;22716;51.556;5.080;2022-09-03T10:40:33;7.03;;;1.50;;
36747;SDS011;22716;51.556;5.080;2022-09-03T10:43:14;4.28;;;1.60;;
36747;SDS011;22716;51.556;5.080;2022-09-03T10:45:59;9.80;;;1.70;;
36747;SDS011;22716;51.556;5.080;2022-09-03T10:48:47;1.83;;;1.10;;
36747;SDS011;22716;51.556;5.080;2022-09-03T10:51:54;3.40;;;1.80;;
36747;SDS011;22716;51.556;5.080;2022-09-03T10:54:47;8.83;;;2.50;;
36747;SDS011;22716;51.556;5.080;2022-09-03T10:57:26;3.58;;;1.95;;
36747;SDS011;22716;51.556;5.080;2022-09-03T11:00:12;5.13;;;1.80;;
36747;SDS011;22716;51.556;5.080;2022-09-03T11:05:53;2.80;;;1.23;;
36747;SDS011;22716;51.556;5.080;2022-09-03T11:08:33;6.13;;;1.30;;
36747;SDS011;22716;51.556;5.080;2022-09-03T11:11:14;5.95;;;1.55;;
36747;SDS011;22716;51.556;5.080;2022-09-03T11:14:08;8.15;;;1.75;;
36747;SDS011;22716;51.556;5.080;2022-09-03T11:16:40;3.85;;;1.33;;
36747;SDS011;22716;51.556;5.080;2022-09-03T11:19:15;6.68;;;2.10;;
36747;SDS011;22716;51.556;5.080;2022-09-03T11:21:48;5.45;;;1.48;;
36747;SDS011;22716;51.556;5.080;2022-09-03T11:24:20;3.88;;;1.05;;
36747;SDS011;22716;51.556;5.080;2022-09-03T11:26:59;5.97;;;1.50;;
36747;SDS011;22716;51.556;5.080;2022-09-03T11:29:36;4.83;;;1.50;;
36747;SDS011;22716;51.556;5.080;2022-09-03T11:32:14;5.97;;;2.10;;
36747;SDS011;22716;51.556;5.080;2022-09-03T11:34:48;2.97;;;1.50;;
36747;SDS011;22716;51.556;5.080;2022-09-03T11:37:20;3.53;;;1.55;;
36747;SDS011;22716;51.556;5.080;2022-09-03T11:39:58;2.44;;;1.46;;
36747;SDS011;22716;51.556;5.080;2022-09-03T11:42:36;4.35;;;1.70;;
36747;SDS011;22716;51.556;5.080;2022-09-03T11:45:19;9.05;;;1.60;;
36747;SDS011;22716;51.556;5.080;2022-09-03T11:47:51;3.22;;;1.40;;
36747;SDS011;22716;51.556;5.080;2022-09-03T11:50:24;4.40;;;1.40;;
36747;SDS011;22716;51.556;5.080;2022-09-03T11:53:07;4.88;;;1.70;;
36747;SDS011;22716;51.556;5.080;2022-09-03T11:55:58;3.10;;;1.20;;
36747;SDS011;22716;51.556;5.080;2022-09-03T11:58:33;7.80;;;1.85;;
36747;SDS011;22716;51.556;5.080;2022-09-03T12:01:04;2.25;;;1.50;;
36747;SDS011;22716;51.556;5.080;2022-09-03T12:03:41;4.47;;;1.38;;
36747;SDS011;22716;51.556;5.080;2022-09-03T12:09:20;7.55;;;1.83;;
36747;SDS011;22716;51.556;5.080;2022-09-03T12:12:25;4.88;;;2.10;;
36747;SDS011;22716;51.556;5.080;2022-09-03T12:15:13;5.27;;;1.60;;
36747;SDS011;22716;51.556;5.080;2022-09-03T12:17:51;2.83;;;1.50;;
36747;SDS011;22716;51.556;5.080;2022-09-03T12:20:36;4.70;;;2.20;;
36747;SDS011;22716;51.556;5.080;2022-09-03T12:23:06;5.50;;;1.90;;
36747;SDS011;22716;51.556;5.080;2022-09-03T12:25:42;8.23;;;1.75;;
36747;SDS011;22716;51.556;5.080;2022-09-03T12:28:15;12.02;;;2.35;;
36747;SDS011;22716;51.556;5.080;2022-09-03T12:31:03;5.18;;;1.80;;
36747;SDS011;22716;51.556;5.080;2022-09-03T12:33:51;3.33;;;2.00;;
36747;SDS011;22716;51.556;5.080;2022-09-03T12:36:23;5.40;;;1.73;;
36747;SDS011;22716;51.556;5.080;2022-09-03T12:38:54;4.95;;;1.42;;
36747;SDS011;22716;51.556;5.080;2022-09-03T12:41:24;2.58;;;1.35;;
36747;SDS011;22716;51.556;5.080;2022-09-03T12:43:56;6.50;;;1.20;;
36747;SDS011;22716;51.556;5.080;2022-09-03T12:46:30;3.67;;;1.25;;
36747;SDS011;22716;51.556;5.080;2022-09-03T12:49:00;3.03;;;1.50;;
36747;SDS011;22716;51.556;5.080;2022-09-03T12:51:33;3.80;;;1.63;;
36747;SDS011;22716;51.556;5.080;2022-09-03T12:54:10;4.38;;;2.17;;
36747;SDS011;22716;51.556;5.080;2022-09-03T12:56:43;5.68;;;2.45;;
36747;SDS011;22716;51.556;5.080;2022-09-03T12:59:18;4.63;;;1.70;;
36747;SDS011;22716;51.556;5.080;2022-09-03T13:01:53;6.47;;;1.77;;
36747;SDS011;22716;51.556;5.080;2022-09-03T13:04:28;4.22;;;1.25;;
36747;SDS011;22716;51.556;5.080;2022-09-03T13:07:02;3.80;;;1.33;;
36747;SDS011;22716;51.556;5.080;2022-09-03T13:09:38;3.50;;;1.60;;
36747;SDS011;22716;51.556;5.080;2022-09-03T13:12:19;5.10;;;1.70;;
36747;SDS011;22716;51.556;5.080;2022-09-03T13:14:51;1.42;;;1.10;;
36747;SDS011;22716;51.556;5.080;2022-09-03T13:17:34;4.20;;;1.30;;
36747;SDS011;22716;51.556;5.080;2022-09-03T13:20:23;4.45;;;1.70;;
36747;SDS011;22716;51.556;5.080;2022-09-03T13:23:06;1.85;;;1.48;;
36747;SDS011;22716;51.556;5.080;2022-09-03T13:25:48;2.13;;;1.38;;
36747;SDS011;22716;51.556;5.080;2022-09-03T13:28:35;3.67;;;2.00;;
36747;SDS011;22716;51.556;5.080;2022-09-03T13:33:55;3.83;;;1.50;;
36747;SDS011;22716;51.556;5.080;2022-09-03T13:36:35;3.35;;;1.63;;
36747;SDS011;22716;51.556;5.080;2022-09-03T13:39:17;6.20;;;2.25;;
36747;SDS011;22716;51.556;5.080;2022-09-03T13:41:54;2.75;;;1.70;;
36747;SDS011;22716;51.556;5.080;2022-09-03T13:44:33;2.97;;;1.77;;
36747;SDS011;22716;51.556;5.080;2022-09-03T13:47:16;7.78;;;1.85;;
36747;SDS011;22716;51.556;5.080;2022-09-03T13:50:00;2.75;;;1.35;;
36747;SDS011;22716;51.556;5.080;2022-09-03T13:52:54;7.47;;;1.58;;
36747;SDS011;22716;51.556;5.080;2022-09-03T13:55:52;6.97;;;2.42;;
36747;SDS011;22716;51.556;5.080;2022-09-03T13:58:24;7.38;;;1.65;;
36747;SDS011;22716;51.556;5.080;2022-09-03T14:01:03;6.38;;;2.58;;
36747;SDS011;22716;51.556;5.080;2022-09-03T14:03:42;4.13;;;1.70;;
36747;SDS011;22716;51.556;5.080;2022-09-03T14:06:28;3.72;;;1.48;;
36747;SDS011;22716;51.556;5.080;2022-09-03T14:09:10;4.97;;;2.63;;
36747;SDS011;22716;51.556;5.080;2022-09-03T14:11:52;6.10;;;1.42;;
36747;SDS011;22716;51.556;5.080;2022-09-03T14:14:33;2.95;;;2.03;;
36747;SDS011;22716;51.556;5.080;2022-09-03T14:17:11;5.40;;;2.05;;
36747;SDS011;22716;51.556;5.080;2022-09-03T14:19:47;3.20;;;1.60;;
36747;SDS011;22716;51.556;5.080;2022-09-03T14:22:28;4.47;;;1.88;;
36747;SDS011;22716;51.556;5.080;2022-09-03T14:25:10;5.85;;;1.88;;
36747;SDS011;22716;51.556;5.080;2022-09-03T14:27:44;3.17;;;1.45;;
36747;SDS011;22716;51.556;5.080;2022-09-03T14:30:18;8.32;;;2.13;;
36747;SDS011;22716;51.556;5.080;2022-09-03T14:33:00;2.28;;;1.58;;
36747;SDS011;22716;51.556;5.080;2022-09-03T14:35:48;3.60;;;1.77;;
36747;SDS011;22716;51.556;5.080;2022-09-03T14:38:49;7.85;;;1.67;;
36747;SDS011;22716;51.556;5.080;2022-09-03T14:44:46;4.55;;;2.10;;
36747;SDS011;22716;51.556;5.080;2022-09-03T14:47:46;5.95;;;1.65;;
36747;SDS011;22716;51.556;5.080;2022-09-03T14:50:40;4.85;;;2.83;;
36747;SDS011;22716;51.556;5.080;2022-09-03T14:53:23;1.45;;;1.25;;
36747;SDS011;22716;51.556;5.080;2022-09-03T14:56:25;7.82;;;2.25;;
36747;SDS011;22716;51.556;5.080;2022-09-03T14:59:14;4.13;;;1.33;;
36747;SDS011;22716;51.556;5.080;2022-09-03T15:02:06;2.08;;;1.60;;
36747;SDS011;22716;51.556;5.080;2022-09-03T15:05:06;5.55;;;1.42;;
36747;SDS011;22716;51.556;5.080;2022-09-03T15:07:50;2.20;;;1.58;;
36747;SDS011;22716;51.556;5.080;2022-09-03T15:10:28;2.70;;;1.52;;
36747;SDS011;22716;51.556;5.080;2022-09-03T15:13:07;4.38;;;2.08;;
36747;SDS011;22716;51.556;5.080;2022-09-03T15:15:48;5.57;;;1.70;;
36747;SDS011;22716;51.556;5.080;2022-09-03T15:18:39;4.10;;;1.42;;
36747;SDS011;22716;51.556;5.080;2022-09-03T15:21:24;3.60;;;1.55;;
36747;SDS011;22716;51.556;5.080;2022-09-03T15:24:09;4.45;;;1.90;;
36747;SDS011;22716;51.556;5.080;2022-09-03T15:26:56;6.35;;;1.60;;
36747;SDS011;22716;51.556;5.080;2022-09-03T15:29:44;4.22;;;1.88;;
36747;SDS011;22716;51.556;5.080;2022-09-03T15:32:25;3.90;;;1.60;;
36747;SDS011;22716;51.556;5.080;2022-09-03T15:35:09;5.18;;;1.73;;
36747;SDS011;22716;51.556;5.080;2022-09-03T15:37:44;2.00;;;1.60;;
36747;SDS011;22716;51.556;5.080;2022-09-03T15:40:27;3.63;;;1.40;;
36747;SDS011;22716;51.556;5.080;2022-09-03T15:43:09;4.65;;;1.45;;
36747;SDS011;22716;51.556;5.080;2022-09-03T15:45:50;8.27;;;2.20;;
36747;SDS011;22716;51.556;5.080;2022-09-03T15:48:32;6.28;;;2.20;;
36747;SDS011;22716;51.556;5.080;2022-09-03T15:51:16;1.73;;;1.42;;